Flight Track Log - Related Links

Times and Time Zones

All times are in EDT time to prevent confusion due to time zone crossing. See the TRS858 flight status page for this flight to view local times or setup timezone preferences in your user account.

Time Position Orientation Groundspeed Altitude Reporting Facility
EDT Latitude Longitude Course Direction KTS MPH feet Rate Location/Type
Wed 01:39:54 PM 30.0114 -90.2428 14° North 181 208 900  Level Houston Center
Wed 01:40:43 PM 30.0611 -90.2289 14° North 226 260 2,600 1,875 Climbing Houston Center
Wed 01:41:14 PM 30.0825 -90.2083 40° Northeast 294 338 3,400 2,516 Climbing Houston Center
Wed 01:42:16 PM 30.0572 -90.1375 112° Southeast 286 329 6,500 3,242 Climbing Houston Center
Wed 01:43:18 PM 29.9778 -90.0833 149° Southeast 280 322 10,100 2,903 Climbing Houston Center
Wed 01:44:20 PM 29.9172 -90.0258 141° Southeast 287 330 12,500 1,742 Climbing Houston Center
Wed 01:45:22 PM 29.8550 -89.9461 132° Southeast 324 373 13,700 1,548 Climbing Houston Center
Wed 01:46:24 PM 29.7844 -89.8556 132° Southeast 362 417 15,700 1,935 Climbing Houston Center
Wed 01:47:26 PM 29.7114 -89.7617 132° Southeast 388 447 17,700 2,129 Climbing Houston Center
Wed 01:48:28 PM 29.6242 -89.6489 132° Southeast 394 453 20,100 2,177 Climbing Houston Center
Wed 01:49:30 PM 29.5500 -89.5522 131° Southeast 400 460 22,200 1,403 Climbing Houston Center
Wed 01:50:32 PM 29.4747 -89.4547 132° Southeast 407 468 23,000 384 Climbing Houston Center
Wed 01:51:35 PM 29.3953 -89.3517 131° Southeast 427 491 23,000 432 Level Houston Center
Wed 01:52:37 PM 29.3153 -89.2494 132° Southeast 430 495 23,900 1,016 Climbing Houston Center
Wed 01:53:39 PM 29.2336 -89.1447 132° Southeast 439 505 25,100 1,258 Climbing Houston Center
Wed 01:54:41 PM 29.1317 -89.0161 132° Southeast 451 519 26,500 1,210 Climbing Houston Center
Wed 01:55:43 PM 29.0469 -88.9072 132° Southeast 457 526 27,600 1,016 Climbing Houston Center
Wed 01:56:45 PM 28.9617 -88.7983 132° Southeast 459 528 28,600 968 Climbing Houston Center
Wed 01:57:47 PM 28.8786 -88.6881 131° Southeast 459 528 29,600 968 Climbing Houston Center
Wed 01:58:49 PM 28.7958 -88.5797 131° Southeast 456 525 30,600 1,065 Climbing Houston Center
Wed 01:59:51 PM 28.6958 -88.4475 131° Southeast 458 527 31,800 1,016 Climbing Houston Center
Wed 02:00:53 PM 28.6139 -88.3386 131° Southeast 453 521 32,700 581 Climbing Houston Center
Wed 02:01:55 PM 28.5328 -88.2314 131° Southeast 448 516 33,000 145 Climbing Houston Center
Wed 02:02:57 PM 28.4511 -88.1228 131° Southeast 451 519 33,000  Level Houston Center
Wed 02:03:59 PM 28.3594 -88.0014 131° Southeast 454 522 33,000  Level Houston Center
Wed 02:05:01 PM 28.2906 -87.8867 124° Southeast 455 524 33,000  Level Houston Center
Wed 02:06:03 PM 28.2189 -87.7681 124° Southeast 456 525 33,000  Level Houston Center
Wed 02:07:05 PM 28.1628 -87.6389 116° Southeast 458 527 33,000  Level Houston Center
Wed 02:08:08 PM 28.0978 -87.4828 115° Southeast 456 525 33,000  Level Houston Center
Wed 02:09:10 PM 28.0572 -87.3442 108° East 461 531 33,000  Level Houston Center
Wed 02:10:12 PM 28.0428 -87.1969 96° East 472 543 33,000  Level Houston Center
Wed 02:11:14 PM 28.0261 -87.0483 97° East 475 547 33,000  Level Houston Center
Wed 02:12:15 PM 28.0106 -86.8956 97° East 476 548 33,000  Level Jacksonville Center
Wed 02:13:16 PM 27.9942 -86.7444 97° East 486 559 33,000  Level Jacksonville Center
Wed 02:14:15 PM 27.9756 -86.5958 98° East 474 545 33,000  Level Jacksonville Center
Wed 02:15:15 PM 27.9631 -86.4567 96° East 468 539 33,000  Level Jacksonville Center
Wed 02:16:15 PM 27.9500 -86.3153 96° East 462 532 33,000  Level Jacksonville Center
Wed 02:17:15 PM 27.9311 -86.1644 98° East 468 539 33,000  Level Jacksonville Center
Wed 02:18:15 PM 27.9158 -86.0253 97° East 460 529 33,000  Level Jacksonville Center
Wed 02:19:16 PM 27.9003 -85.8839 97° East 460 529 33,000  Level Jacksonville Center
Wed 02:20:15 PM 27.8831 -85.7286 97° East 467 537 33,000  Level Jacksonville Center
Wed 02:21:15 PM 27.8650 -85.5897 98° East 462 532 33,000  Level Jacksonville Center
Wed 02:21:52 PM 27.8578 -85.4881 95° East 462 532 33,000  Level Miami Center
Wed 02:22:52 PM 27.8408 -85.3533 98° East 515 593 33,000  Level Miami Center
Wed 02:23:52 PM 27.8378 -85.1914 91° East 493 567 33,000  Level Miami Center
Wed 02:24:52 PM 27.8353 -85.0553 91° East 479 551 33,000  Level Miami Center
Wed 02:25:52 PM 27.8353 -84.9075 90° East 471 542 33,000  Level Miami Center
Wed 02:26:52 PM 27.8369 -84.7622 89° East 471 542 33,000  Level Miami Center
Wed 02:27:52 PM 27.8389 -84.6125 89° East 471 542 33,000  Level Miami Center
Wed 02:28:52 PM 27.8386 -84.4647 90° East 471 542 33,000  Level Miami Center
Wed 02:29:52 PM 27.8358 -84.3144 91° East 471 542 33,000  Level Miami Center
Wed 02:30:52 PM 27.8372 -84.1692 89° East 476 548 33,000  Level Miami Center
Wed 02:31:52 PM 27.8364 -84.0189 90° East 476 548 33,000 -100 Level Miami Center
Wed 02:32:52 PM 27.8375 -83.8689 89° East 481 554 32,800 -1,450 Descending Miami Center
Wed 02:33:52 PM 27.8364 -83.7211 90° East 476 548 30,100 -2,550 Descending Miami Center
Wed 02:34:52 PM 27.8347 -83.5756 91° East 476 548 27,700 -2,350 Descending Miami Center
Wed 02:35:52 PM 27.8308 -83.4347 92° East 464 534 25,400 -2,350 Descending Miami Center
Wed 02:36:52 PM 27.8328 -83.3011 89° East 440 506 23,000 -2,250 Descending Miami Center
Wed 02:37:52 PM 27.8322 -83.1719 90° East 419 482 20,900 -1,450 Descending Miami Center
Wed 02:38:52 PM 27.8314 -83.0475 90° East 403 464 20,100 -750 Descending Miami Center
Wed 02:39:52 PM 27.8344 -82.9258 88° East 393 452 19,400 -750 Descending Miami Center
Wed 02:40:52 PM 27.8567 -82.7931 79° East 393 452 18,600 -750 Descending Miami Center
Wed 02:41:52 PM 27.8736 -82.6883 80° East 388 447 17,900 -700 Descending Miami Center
Wed 02:42:52 PM 27.8950 -82.5719 78° East 383 441 17,200 -700 Descending Miami Center
Wed 02:43:52 PM 27.9142 -82.4556 79° East 378 435 16,500 -700 Descending Miami Center
Wed 02:44:52 PM 27.9517 -82.3472 69° East 367 422 15,800 -750 Descending Miami Center
Wed 02:45:52 PM 28.0033 -82.2461 60° Northeast 367 422 15,000 -500 Descending Miami Center
Wed 02:46:52 PM 27.9714 -82.1553 112° Southeast 307 353 14,800  Descending Miami Center
Wed 02:48:38 PM 27.9000 -81.9833 115° Southeast 345 397 15,000 36 Climbing Orlando TRACON
Wed 02:49:38 PM 27.9000 -81.8833 90° East 342 394 14,900 -895 Descending Orlando TRACON
Wed 02:50:32 PM 27.9500 -81.8000 56° Northeast 356 410 13,300 -1,211 Descending Orlando TRACON
Wed 02:51:32 PM 28.0333 -81.7333 35° Northeast 377 434 12,600 -1,316 Descending Orlando TRACON
Wed 02:52:26 PM 28.1000 -81.6667 41° Northeast 369 425 10,800 -1,474 Descending Orlando TRACON
Wed 02:53:26 PM 28.1833 -81.6000 35° Northeast 304 350 9,800 -843 Descending Orlando TRACON
Wed 02:54:27 PM 28.2500 -81.5500 33° Northeast 296 341 9,100 -381 Descending Orlando TRACON
Wed 02:55:32 PM 28.3167 -81.4833 41° Northeast 296 341 9,000 -143 Descending Orlando TRACON
Wed 02:56:33 PM 28.3667 -81.4333 41° Northeast 268 308 8,800 -895 Descending Orlando TRACON
Wed 02:57:26 PM 28.4333 -81.4167 12° North 278 320 7,300 -1,563 Descending Orlando TRACON
Wed 02:58:32 PM 28.5167 -81.4500 341° North 273 314 5,700 -1,417 Descending Orlando TRACON
Wed 02:59:33 PM 28.6000 -81.4333 10° North 257 296 4,300 -1,252 Descending Orlando TRACON
Wed 03:00:27 PM 28.6167 -81.3833 69° East 207 238 3,300 -950 Descending Orlando TRACON
Wed 03:01:33 PM 28.5667 -81.3500 150° Southeast 182 209 2,400 -800 Descending Orlando TRACON
Wed 03:02:27 PM 28.5333 -81.3333 156° South 165 190 1,700 -737 Descending Orlando TRACON
Wed 03:03:27 PM 28.5000 -81.3333 180° South 134 154 1,000 -700 Descending Orlando TRACON

Login

Don't have an account? Register now (free) for customized features, flight alerts, and more!